createdAt,value
2022-08-08T00:00:56.638Z,14.41
2022-08-08T00:03:54.635Z,14.29
2022-08-08T00:07:09.256Z,14.22
2022-08-08T00:10:35.057Z,14.12
2022-08-08T00:14:17.463Z,14.11
2022-08-08T00:17:58.551Z,14.07
2022-08-08T00:20:44.415Z,14.05
2022-08-08T00:24:07.880Z,14.07
2022-08-08T00:27:16.556Z,14.13
2022-08-08T00:30:23.968Z,14.17
2022-08-08T00:33:24.062Z,14.22
2022-08-08T00:36:42.938Z,14.21
2022-08-08T00:41:05.997Z,14.26
2022-08-08T00:42:51.706Z,14.29
2022-08-08T00:46:56.817Z,14.30
2022-08-08T00:50:26.668Z,14.33
2022-08-08T00:53:57.178Z,14.30
2022-08-08T00:57:42.502Z,14.25
2022-08-08T01:01:02.281Z,14.23
2022-08-08T01:04:57.747Z,14.22
2022-08-08T01:08:35.680Z,14.10
2022-08-08T01:12:07.302Z,13.96
2022-08-08T01:15:44.148Z,13.87
2022-08-08T01:19:52.005Z,13.83
2022-08-08T01:24:02.743Z,13.81
2022-08-08T01:27:16.192Z,13.79
2022-08-08T01:30:59.390Z,13.77
2022-08-08T01:34:45.615Z,13.73
2022-08-08T01:37:56.222Z,13.74
2022-08-08T01:41:04.065Z,13.79
2022-08-08T01:44:43.918Z,13.76
2022-08-08T01:48:30.339Z,13.74
2022-08-08T01:53:07.231Z,13.72
2022-08-08T01:56:29.239Z,13.69
2022-08-08T02:00:02.196Z,13.65
2022-08-08T02:03:54.425Z,13.73
2022-08-08T02:07:19.379Z,13.77
2022-08-08T02:11:23.492Z,13.78
2022-08-08T02:14:55.767Z,13.75
2022-08-08T02:17:55.782Z,13.75
2022-08-08T02:21:35.881Z,13.75
2022-08-08T02:24:52.797Z,13.76
2022-08-08T02:27:51.511Z,13.79
2022-08-08T02:30:58.287Z,13.80
2022-08-08T02:34:08.873Z,13.80
2022-08-08T02:37:53.553Z,13.79
2022-08-08T02:41:00.446Z,13.78
2022-08-08T02:44:42.715Z,13.77
2022-08-08T02:49:02.315Z,13.77
2022-08-08T02:52:34.751Z,13.76
2022-08-08T02:56:15.130Z,13.76
2022-08-08T02:59:57.724Z,13.77
2022-08-08T03:05:01.263Z,13.78
2022-08-08T03:07:41.718Z,13.77
2022-08-08T03:11:13.985Z,13.73
2022-08-08T03:15:59.340Z,13.71
2022-08-08T03:18:31.058Z,13.70
2022-08-08T03:21:15.657Z,13.69
2022-08-08T03:24:05.331Z,13.70
2022-08-08T03:26:48.961Z,13.70
2022-08-08T03:29:55.580Z,13.69
2022-08-08T03:32:58.601Z,13.72
2022-08-08T03:35:45.320Z,13.76
2022-08-08T03:38:57.512Z,13.80
2022-08-08T03:42:12.360Z,13.86
2022-08-08T03:46:05.821Z,13.88
2022-08-08T03:49:57.850Z,13.90
2022-08-08T03:52:24.159Z,13.97
2022-08-08T03:55:55.600Z,14.02
2022-08-08T04:04:50.459Z,14.11
2022-08-08T04:07:58.384Z,14.17
2022-08-08T04:10:59.665Z,14.23
2022-08-08T04:14:03.121Z,14.30
2022-08-08T04:16:40.291Z,14.36
2022-08-08T04:19:23.950Z,14.41
2022-08-08T04:22:16.707Z,14.48
2022-08-08T04:24:53.754Z,14.54
2022-08-08T04:28:02.154Z,14.62
2022-08-08T04:30:36.594Z,14.71
2022-08-08T04:33:26.959Z,14.83
2022-08-08T04:35:57.945Z,14.98
2022-08-08T04:38:34.363Z,15.09
2022-08-08T04:41:25.583Z,15.18
2022-08-08T04:44:10.619Z,15.25
2022-08-08T04:47:04.729Z,15.30
2022-08-08T04:50:00.856Z,15.36
2022-08-08T04:52:37.271Z,15.42
2022-08-08T04:55:21.866Z,15.55
2022-08-08T04:57:59.229Z,15.70
2022-08-08T05:00:41.389Z,15.85
2022-08-08T05:03:18.978Z,16.02
2022-08-08T05:06:25.210Z,16.14
2022-08-08T05:09:02.501Z,16.26
2022-08-08T05:12:00.418Z,16.37
2022-08-08T05:14:31.332Z,16.54
2022-08-08T05:17:08.742Z,16.70
2022-08-08T05:20:11.635Z,16.79
2022-08-08T05:23:01.861Z,16.91
2022-08-08T05:26:37.350Z,16.96
2022-08-08T05:29:29.601Z,17.19
2022-08-08T05:32:06.143Z,17.32
2022-08-08T05:34:53.443Z,17.37
2022-08-08T05:37:49.066Z,17.45
2022-08-08T05:44:02.855Z,17.83
2022-08-08T05:46:24.424Z,17.90
2022-08-08T05:48:55.446Z,17.94
2022-08-08T05:51:48.187Z,17.96
2022-08-08T05:54:27.179Z,18.01
2022-08-08T05:57:57.737Z,18.20
2022-08-08T06:00:23.735Z,18.52
2022-08-08T06:03:17.329Z,18.74
2022-08-08T06:06:32.470Z,18.95
2022-08-08T06:10:00.440Z,19.10
2022-08-08T06:12:18.402Z,19.27
2022-08-08T06:14:51.289Z,19.43
2022-08-08T06:17:50.390Z,19.49
2022-08-08T06:20:21.388Z,19.50
2022-08-08T06:22:57.851Z,19.65
2022-08-08T06:26:39.058Z,19.70
2022-08-08T06:28:44.051Z,19.71
2022-08-08T06:31:20.886Z,19.75
2022-08-08T06:34:26.635Z,19.84
2022-08-08T06:37:24.123Z,20.00
2022-08-08T06:40:03.161Z,20.16
2022-08-08T06:42:39.336Z,20.23
2022-08-08T06:45:34.917Z,20.36
2022-08-08T06:48:10.962Z,20.50
2022-08-08T06:50:42.870Z,20.55
2022-08-08T06:53:20.266Z,20.61
2022-08-08T06:56:01.933Z,20.71
2022-08-08T06:58:40.018Z,20.88
2022-08-08T07:02:16.672Z,21.06
2022-08-08T07:04:37.554Z,21.23
2022-08-08T07:07:10.671Z,21.33
2022-08-08T07:10:12.467Z,21.41
2022-08-08T07:13:07.603Z,21.58
2022-08-08T07:16:05.126Z,21.69
2022-08-08T07:18:52.223Z,21.91
2022-08-08T07:22:05.497Z,22.00
2022-08-08T07:24:53.378Z,22.16
2022-08-08T07:27:35.299Z,22.38
2022-08-08T07:30:25.664Z,23.78
2022-08-08T07:33:02.755Z,26.53
2022-08-08T07:35:35.469Z,29.23
2022-08-08T07:38:18.226Z,31.29
2022-08-08T07:41:04.140Z,32.97
2022-08-08T07:43:41.007Z,34.31
2022-08-08T07:46:23.738Z,35.24
2022-08-08T07:49:01.966Z,36.11
2022-08-08T07:52:00.503Z,36.90
2022-08-08T07:54:54.040Z,38.11
2022-08-08T07:57:48.690Z,39.27
2022-08-08T08:01:11.784Z,40.35
2022-08-08T08:05:03.606Z,41.29
2022-08-08T08:08:54.503Z,41.80
2022-08-08T08:12:30.271Z,42.13
2022-08-08T08:16:00.161Z,42.03
2022-08-08T08:19:45.070Z,42.62
2022-08-08T08:22:31.311Z,44.50
2022-08-08T08:26:04.521Z,45.63
2022-08-08T08:29:53.342Z,46.68
2022-08-08T08:33:11.106Z,46.97
2022-08-08T08:36:19.524Z,43.83
2022-08-08T08:38:35.896Z,40.74
2022-08-08T08:41:17.923Z,38.74
2022-08-08T08:43:52.107Z,37.22
2022-08-08T08:46:26.099Z,36.16
2022-08-08T08:48:58.019Z,35.20
2022-08-08T08:51:30.542Z,33.97
2022-08-08T08:54:04.407Z,33.14
2022-08-08T08:56:41.948Z,32.46
2022-08-08T08:59:23.603Z,32.11
2022-08-08T09:02:18.299Z,32.21
2022-08-08T09:04:53.133Z,32.85
2022-08-08T09:07:39.635Z,34.39
2022-08-08T09:10:38.375Z,37.11
2022-08-08T09:13:12.534Z,39.58
2022-08-08T09:16:44.865Z,41.26
2022-08-08T09:22:00.313Z,42.99
2022-08-08T09:23:17.838Z,43.71
2022-08-08T09:27:42.049Z,45.08
2022-08-08T09:31:12.827Z,45.59
2022-08-08T09:34:30.800Z,45.61
2022-08-08T09:36:51.757Z,44.58
2022-08-08T09:40:18.839Z,43.91
2022-08-08T09:43:16.387Z,42.14
2022-08-08T09:46:11.299Z,40.76
2022-08-08T09:48:50.688Z,40.18
2022-08-08T09:51:31.284Z,39.85
2022-08-08T09:54:37.134Z,39.66
2022-08-08T09:57:16.935Z,38.25
2022-08-08T10:00:28.768Z,37.13
2022-08-08T10:02:46.773Z,35.73
2022-08-08T10:05:25.302Z,34.66
2022-08-08T10:08:00.485Z,33.82
2022-08-08T10:10:50.109Z,33.16
2022-08-08T10:13:35.453Z,32.46
2022-08-08T10:16:10.837Z,31.81
2022-08-08T10:18:43.018Z,31.19
2022-08-08T10:21:25.470Z,30.78
2022-08-08T10:24:04.458Z,30.38
2022-08-08T10:26:59.430Z,30.03
2022-08-08T10:29:58.741Z,29.50
2022-08-08T10:32:38.778Z,29.19
2022-08-08T10:35:20.610Z,28.72
2022-08-08T10:38:08.321Z,28.39
2022-08-08T10:40:40.480Z,28.21
2022-08-08T10:43:14.704Z,28.06
2022-08-08T10:46:36.029Z,27.93
2022-08-08T10:49:07.527Z,27.24
2022-08-08T10:51:58.405Z,26.87
2022-08-08T10:54:30.004Z,26.65
2022-08-08T10:57:03.930Z,26.43
2022-08-08T10:59:39.793Z,26.10
2022-08-08T11:02:13.143Z,25.83
2022-08-08T11:04:53.199Z,25.61
2022-08-08T11:08:31.759Z,25.50
2022-08-08T11:10:28.690Z,25.40
2022-08-08T11:16:01.443Z,25.20
2022-08-08T11:18:39.908Z,25.05
2022-08-08T11:21:20.262Z,24.92
2022-08-08T11:24:02.925Z,24.79
2022-08-08T11:26:38.298Z,24.69
2022-08-08T11:29:51.639Z,24.69
2022-08-08T11:32:22.592Z,24.69
2022-08-08T11:35:25.945Z,24.70
2022-08-08T11:38:38.661Z,24.73
2022-08-08T11:41:00.929Z,24.81
2022-08-08T11:43:39.221Z,24.91
2022-08-08T11:46:18.773Z,25.00
2022-08-08T11:48:50.979Z,25.11
2022-08-08T11:51:30.178Z,25.29
2022-08-08T11:54:32.328Z,25.51
2022-08-08T11:57:17.413Z,25.73
2022-08-08T12:00:05.397Z,25.94
2022-08-08T12:02:52.191Z,26.11
2022-08-08T12:05:37.264Z,26.10
2022-08-08T12:08:11.645Z,26.19
2022-08-08T12:10:52.562Z,26.23
2022-08-08T12:13:38.353Z,26.06
2022-08-08T12:16:30.826Z,26.01
2022-08-08T12:19:15.520Z,25.98
2022-08-08T12:21:59.492Z,26.07
2022-08-08T12:24:53.897Z,26.28
2022-08-08T12:27:35.686Z,26.53
2022-08-08T12:30:21.699Z,26.78
2022-08-08T12:32:55.347Z,26.89
2022-08-08T12:35:25.176Z,27.06
2022-08-08T12:38:09.053Z,27.16
2022-08-08T12:40:57.063Z,27.25
2022-08-08T12:43:47.497Z,27.47
2022-08-08T12:46:28.789Z,27.70
2022-08-08T12:52:00.087Z,28.20
2022-08-08T12:58:54.265Z,28.21
2022-08-08T13:01:38.056Z,28.27
2022-08-08T13:04:26.719Z,28.44
2022-08-08T13:08:03.681Z,28.72
2022-08-08T13:10:17.542Z,29.00
2022-08-08T13:12:55.177Z,29.36
2022-08-08T13:15:38.837Z,29.31
2022-08-08T13:18:21.660Z,29.18
2022-08-08T13:21:00.466Z,29.20
2022-08-08T13:23:41.854Z,29.15
2022-08-08T13:26:19.658Z,29.23
2022-08-08T13:28:53.885Z,29.42
2022-08-08T13:31:25.697Z,29.62
2022-08-08T13:34:06.573Z,29.69
2022-08-08T13:36:44.913Z,29.59
2022-08-08T13:39:17.540Z,29.47
2022-08-08T13:41:57.009Z,29.35
2022-08-08T13:44:35.244Z,29.26
2022-08-08T13:47:17.128Z,29.11
2022-08-08T13:50:36.015Z,28.97
2022-08-08T13:53:02.333Z,28.85
2022-08-08T13:56:11.614Z,28.66
2022-08-08T13:58:56.234Z,28.48
2022-08-08T14:01:41.598Z,28.24
2022-08-08T14:04:27.714Z,28.12
2022-08-08T14:07:02.072Z,27.97
2022-08-08T14:10:05.520Z,27.86
2022-08-08T14:12:35.224Z,27.70
2022-08-08T14:15:15.171Z,27.47
2022-08-08T14:18:53.505Z,27.24
2022-08-08T14:22:04.983Z,27.27
2022-08-08T14:25:38.742Z,27.43
2022-08-08T14:29:11.648Z,27.53
2022-08-08T14:32:29.935Z,27.55
2022-08-08T14:35:20.005Z,27.47
2022-08-08T14:37:59.923Z,27.56
2022-08-08T14:40:45.581Z,27.53
2022-08-08T14:44:01.854Z,27.61
2022-08-08T14:50:53.331Z,27.48
2022-08-08T14:54:09.288Z,27.38
2022-08-08T14:57:04.125Z,27.38
2022-08-08T14:59:49.990Z,27.27
2022-08-08T15:03:01.528Z,27.09
2022-08-08T15:05:53.301Z,26.85
2022-08-08T15:08:34.418Z,26.64
2022-08-08T15:11:27.865Z,26.43
2022-08-08T15:14:38.155Z,26.16
2022-08-08T15:17:42.384Z,25.85
2022-08-08T15:21:01.983Z,25.62
2022-08-08T15:23:36.361Z,25.44
2022-08-08T15:26:54.457Z,25.31
2022-08-08T15:30:01.744Z,25.26
2022-08-08T15:32:54.150Z,25.22
2022-08-08T15:35:43.734Z,25.13
2022-08-08T15:38:18.440Z,25.07
2022-08-08T15:41:07.399Z,25.04
2022-08-08T15:53:50.604Z,24.92
2022-08-08T15:56:38.529Z,24.83
2022-08-08T15:59:15.528Z,24.68
2022-08-08T16:01:59.843Z,24.53
2022-08-08T16:04:58.800Z,24.44
2022-08-08T16:07:51.019Z,24.40
2022-08-08T16:13:10.989Z,24.33
2022-08-08T16:13:30.385Z,24.30
2022-08-08T16:16:13.400Z,24.31
2022-08-08T16:18:56.745Z,24.27
2022-08-08T16:21:32.038Z,24.28
2022-08-08T16:24:10.176Z,24.23
2022-08-08T16:26:44.560Z,24.23
2022-08-08T16:29:23.654Z,24.17
2022-08-08T16:32:13.557Z,24.08
2022-08-08T16:34:56.301Z,23.96
2022-08-08T16:37:47.409Z,23.88
2022-08-08T16:40:45.412Z,23.84
2022-08-08T16:43:19.549Z,23.76
2022-08-08T16:47:08.411Z,23.71
2022-08-08T16:55:04.483Z,23.55
2022-08-08T16:57:03.652Z,23.42
2022-08-08T16:59:58.160Z,23.37
2022-08-08T17:02:39.974Z,23.30
2022-08-08T17:05:12.930Z,23.27
2022-08-08T17:07:51.071Z,23.21
2022-08-08T17:10:35.519Z,23.17
2022-08-08T17:17:22.892Z,23.08
2022-08-08T17:20:21.251Z,23.08
2022-08-08T17:23:57.973Z,23.06
2022-08-08T17:36:30.923Z,22.69
2022-08-08T17:39:45.617Z,22.59
2022-08-08T17:42:19.191Z,22.54
2022-08-08T17:49:16.445Z,22.40
2022-08-08T17:51:55.674Z,22.32
2022-08-08T17:54:32.855Z,22.28
2022-08-08T17:57:24.245Z,22.24
2022-08-08T17:59:58.919Z,22.18
2022-08-08T18:06:22.184Z,22.10
2022-08-08T18:09:22.069Z,22.05
2022-08-08T18:12:36.307Z,22.06
2022-08-08T18:16:04.318Z,22.02
2022-08-08T18:18:50.578Z,22.00
2022-08-08T18:22:00.921Z,22.00
2022-08-08T18:25:06.982Z,21.99
2022-08-08T18:27:43.180Z,21.97
2022-08-08T18:30:43.613Z,21.93
2022-08-08T18:36:36.346Z,21.87
2022-08-08T18:39:10.476Z,21.85
2022-08-08T18:41:58.078Z,21.85
2022-08-08T18:44:39.023Z,21.83
2022-08-08T18:47:08.874Z,21.79
2022-08-08T18:49:58.575Z,21.73
2022-08-08T18:52:30.806Z,21.67
2022-08-08T18:55:09.693Z,21.59
2022-08-08T18:57:45.214Z,21.54
2022-08-08T19:00:20.557Z,21.51
2022-08-08T19:03:02.454Z,21.49
2022-08-08T19:05:46.579Z,21.47
2022-08-08T19:08:25.016Z,21.45
2022-08-08T19:11:01.798Z,21.39
2022-08-08T19:13:53.387Z,21.33
2022-08-08T19:16:28.468Z,21.27
2022-08-08T19:19:02.931Z,21.21
2022-08-08T19:21:48.935Z,21.15
2022-08-08T19:24:48.121Z,21.10
2022-08-08T19:27:10.699Z,21.06
2022-08-08T19:29:45.746Z,20.98
2022-08-08T19:32:21.849Z,20.95
2022-08-08T19:34:55.288Z,20.93
2022-08-08T19:37:42.388Z,20.88
2022-08-08T19:40:16.424Z,20.79
2022-08-08T19:42:48.754Z,20.74
2022-08-08T19:45:58.414Z,20.68
2022-08-08T19:48:28.956Z,20.62
2022-08-08T19:51:02.964Z,20.58
2022-08-08T19:53:51.914Z,20.56
2022-08-08T19:56:39.883Z,20.51
2022-08-08T19:59:13.334Z,20.49
2022-08-08T20:02:01.750Z,20.50
2022-08-08T20:04:37.703Z,20.50
2022-08-08T20:08:28.769Z,20.51
2022-08-08T20:10:03.543Z,20.52
2022-08-08T20:12:35.910Z,20.53
2022-08-08T20:15:15.140Z,20.53
2022-08-08T20:17:48.225Z,20.54
2022-08-08T20:20:23.206Z,20.54
2022-08-08T20:22:56.156Z,20.55
2022-08-08T20:25:31.347Z,20.57
2022-08-08T20:28:07.895Z,20.58
2022-08-08T20:30:52.697Z,20.58
2022-08-08T20:35:57.089Z,20.55
2022-08-08T20:38:32.602Z,20.55
2022-08-08T20:41:05.703Z,20.53
2022-08-08T20:43:49.940Z,20.49
2022-08-08T20:50:28.407Z,20.48
2022-08-08T20:52:59.277Z,20.43
2022-08-08T20:55:30.835Z,20.40
2022-08-08T20:58:13.963Z,20.35
2022-08-08T21:00:54.095Z,20.30
2022-08-08T21:03:29.662Z,20.29
2022-08-08T21:05:59.912Z,20.28
2022-08-08T21:08:48.952Z,20.26
2022-08-08T21:11:50.434Z,20.27
2022-08-08T21:14:13.779Z,20.25
2022-08-08T21:16:51.279Z,20.22
2022-08-08T21:19:22.847Z,20.18
2022-08-08T21:21:57.329Z,20.17
2022-08-08T21:24:31.308Z,20.12
2022-08-08T21:27:04.877Z,20.09
2022-08-08T21:30:05.561Z,20.06
2022-08-08T21:32:28.957Z,20.01
2022-08-08T21:36:17.568Z,19.91
2022-08-08T21:38:03.947Z,19.90
2022-08-08T21:40:37.065Z,19.92
2022-08-08T21:43:08.281Z,19.92
2022-08-08T21:48:06.368Z,19.92
2022-08-08T21:49:03.378Z,19.92
2022-08-08T21:54:16.842Z,19.92
2022-08-08T21:54:52.346Z,19.91
2022-08-08T21:57:18.987Z,19.88
2022-08-08T22:00:03.556Z,19.85
2022-08-08T22:02:48.289Z,19.83
2022-08-08T22:05:20.297Z,19.81
2022-08-08T22:07:51.283Z,19.75
2022-08-08T22:10:31.934Z,19.66
2022-08-08T22:13:18.591Z,19.59
2022-08-08T22:15:58.669Z,19.57
2022-08-08T22:18:33.091Z,19.54
2022-08-08T22:21:14.713Z,19.52
2022-08-08T22:23:51.196Z,19.47
2022-08-08T22:26:30.860Z,19.41
2022-08-08T22:29:14.244Z,19.37
2022-08-08T22:32:02.290Z,19.34
2022-08-08T22:34:39.261Z,19.31
2022-08-08T22:37:14.837Z,19.25
2022-08-08T22:40:04.002Z,19.19
2022-08-08T22:42:36.745Z,19.13
2022-08-08T22:45:57.699Z,19.07
2022-08-08T22:48:31.485Z,18.98
2022-08-08T22:51:06.840Z,18.95
2022-08-08T22:54:33.247Z,18.95
2022-08-08T22:56:31.948Z,18.93
2022-08-08T22:59:04.594Z,18.93
2022-08-08T23:02:02.622Z,18.94
2022-08-08T23:04:36.279Z,18.97
2022-08-08T23:09:55.192Z,18.99
2022-08-08T23:12:40.722Z,19.01
2022-08-08T23:16:41.573Z,18.96
2022-08-08T23:18:11.817Z,18.93
2022-08-08T23:20:43.824Z,18.94
2022-08-08T23:23:14.618Z,18.96
2022-08-08T23:25:49.568Z,18.93
2022-08-08T23:28:19.289Z,18.89
2022-08-08T23:30:53.079Z,18.85
2022-08-08T23:34:15.901Z,18.80
2022-08-08T23:36:21.119Z,18.79
2022-08-08T23:38:57.811Z,18.85
2022-08-08T23:41:28.956Z,18.91
2022-08-08T23:44:03.106Z,18.94
2022-08-08T23:49:08.766Z,18.95
2022-08-08T23:50:41.118Z,18.87
2022-08-08T23:53:19.216Z,18.82
2022-08-08T23:56:08.683Z,18.75
2022-08-08T23:58:39.157Z,18.66
